createdAt,value
2022-11-01T00:04:34.622Z,32.33
2022-11-01T00:09:39.789Z,39.67
2022-11-01T00:14:43.581Z,36.65
2022-11-01T00:19:47.353Z,39.72
2022-11-01T00:24:54.841Z,32.78
2022-11-01T00:29:58.921Z,34.92
2022-11-01T00:35:02.756Z,29.45
2022-11-01T00:40:08.985Z,23.55
2022-11-01T00:50:16.534Z,27.23
2022-11-01T00:55:21.697Z,26.60
2022-11-01T01:00:25.512Z,25.65
2022-11-01T01:05:29.317Z,29.23
2022-11-01T01:10:34.503Z,22.38
2022-11-01T01:15:39.196Z,23.20
2022-11-01T01:20:43.007Z,25.13
2022-11-01T01:25:48.168Z,24.90
2022-11-01T01:30:51.963Z,19.40
2022-11-01T01:35:55.758Z,25.25
2022-11-01T01:41:21.153Z,22.88
2022-11-01T01:46:24.917Z,25.27
2022-11-01T01:51:29.243Z,20.98
2022-11-01T01:56:37.048Z,19.92
2022-11-01T02:01:42.640Z,17.33
2022-11-01T02:06:46.839Z,20.52
2022-11-01T02:11:52.043Z,16.58
2022-11-01T02:17:00.057Z,19.45
2022-11-01T02:22:07.404Z,16.50
2022-11-01T02:27:25.457Z,16.02
2022-11-01T02:32:36.205Z,14.90
2022-11-01T02:37:45.156Z,17.58
2022-11-01T02:42:52.145Z,17.85
2022-11-01T02:47:58.578Z,17.83
2022-11-01T02:53:03.131Z,17.67
2022-11-01T02:58:10.715Z,21.38
2022-11-01T03:03:18.791Z,17.35
2022-11-01T03:08:24.855Z,19.30
2022-11-01T03:13:35.849Z,24.92
2022-11-01T03:18:48.363Z,20.23
2022-11-01T03:23:55.489Z,23.40
2022-11-01T03:29:01.440Z,20.42
2022-11-01T03:34:08.534Z,28.52
2022-11-01T03:39:16.122Z,21.02
2022-11-01T03:44:20.298Z,20.58
2022-11-01T03:49:25.509Z,25.73
2022-11-01T03:54:29.337Z,26.02
2022-11-01T03:59:33.176Z,22.08
2022-11-01T04:04:38.301Z,23.15
2022-11-01T04:09:42.089Z,24.73
2022-11-01T04:15:03.324Z,23.80
2022-11-01T04:20:27.434Z,26.15
2022-11-01T04:25:31.667Z,26.85
2022-11-01T04:30:35.444Z,31.75
2022-11-01T04:35:40.619Z,33.10
2022-11-01T04:40:44.812Z,27.65
2022-11-01T04:45:55.779Z,23.90
2022-11-01T04:51:03.636Z,27.10
2022-11-01T04:56:09.497Z,29.50
2022-11-01T05:01:13.464Z,23.02
2022-11-01T05:06:18.833Z,29.70
2022-11-01T05:11:25.755Z,26.33
2022-11-01T05:16:29.750Z,30.27
2022-11-01T05:21:34.914Z,27.02
2022-11-01T05:26:38.685Z,19.90
2022-11-01T05:31:42.474Z,18.42
2022-11-01T05:36:47.813Z,26.27
2022-11-01T05:41:51.593Z,20.90
2022-11-01T05:46:55.440Z,21.08
2022-11-01T05:52:00.625Z,26.95
2022-11-01T05:57:06.321Z,25.42
2022-11-01T06:02:10.159Z,30.00
2022-11-01T06:07:15.744Z,54.13
2022-11-01T06:12:19.552Z,28.05
2022-11-01T06:17:23.357Z,24.45
2022-11-01T06:22:28.697Z,25.80
2022-11-01T06:27:32.709Z,28.73
2022-11-01T06:32:36.605Z,28.65
2022-11-01T06:37:41.904Z,28.95
2022-11-01T06:42:47.009Z,27.23
2022-11-01T06:47:50.956Z,30.43
2022-11-01T06:52:58.980Z,29.50
2022-11-01T06:58:04.242Z,28.38
2022-11-01T07:03:11.009Z,38.53
2022-11-01T07:08:16.310Z,35.88
2022-11-01T07:13:20.090Z,37.47
2022-11-01T07:18:23.849Z,28.80
2022-11-01T07:23:29.429Z,32.15
2022-11-01T07:28:33.194Z,27.77
2022-11-01T07:33:37.010Z,23.98
2022-11-01T07:38:42.175Z,29.30
2022-11-01T07:43:45.939Z,31.73
2022-11-01T07:48:51.113Z,33.10
2022-11-01T07:53:56.373Z,23.70
2022-11-01T07:59:00.177Z,30.30
2022-11-01T08:04:03.951Z,24.27
2022-11-01T08:09:09.395Z,22.98
2022-11-01T08:14:13.179Z,33.58
2022-11-01T08:19:16.963Z,28.73
2022-11-01T08:24:22.162Z,34.90
2022-11-01T08:29:25.929Z,31.50
2022-11-01T08:34:30.869Z,28.63
2022-11-01T08:39:36.089Z,18.77
2022-11-01T08:44:44.984Z,20.70
2022-11-01T08:49:48.843Z,26.67
2022-11-01T08:54:54.079Z,25.88
2022-11-01T08:59:57.954Z,22.27
2022-11-01T09:05:02.850Z,28.52
2022-11-01T09:10:09.177Z,23.75
2022-11-01T09:15:13.079Z,23.27
2022-11-01T09:20:17.369Z,21.05
2022-11-01T09:25:22.607Z,16.90
2022-11-01T09:30:26.676Z,21.45
2022-11-01T09:35:30.701Z,19.67
2022-11-01T09:40:44.040Z,24.65
2022-11-01T09:45:48.380Z,17.88
2022-11-01T09:50:52.179Z,18.52
2022-11-01T09:56:02.143Z,19.73
2022-11-01T10:01:20.172Z,18.38
2022-11-01T10:06:25.573Z,18.77
2022-11-01T10:11:49.296Z,16.90
2022-11-01T10:17:00.688Z,19.35
2022-11-01T10:22:09.007Z,13.88
2022-11-01T10:27:21.299Z,17.02
2022-11-01T10:32:31.904Z,16.70
2022-11-01T10:37:43.819Z,11.18
2022-11-01T10:42:57.430Z,17.88
2022-11-01T10:48:01.527Z,18.35
2022-11-01T10:53:09.367Z,21.50
2022-11-01T10:58:20.456Z,13.55
2022-11-01T11:03:25.782Z,20.50
2022-11-01T11:08:29.726Z,16.88
2022-11-01T11:13:35.332Z,21.10
2022-11-01T11:18:42.224Z,18.00
2022-11-01T11:23:47.185Z,16.15
2022-11-01T11:28:55.954Z,19.65
2022-11-01T11:34:04.362Z,17.08
2022-11-01T11:39:08.538Z,22.67
2022-11-01T11:44:40.704Z,16.05
2022-11-01T11:49:44.756Z,15.57
2022-11-01T11:54:49.005Z,22.90
2022-11-01T11:59:56.210Z,18.85
2022-11-01T12:05:01.691Z,19.75
2022-11-01T12:10:07.042Z,16.55
2022-11-01T12:20:40.945Z,17.48
2022-11-01T12:25:45.959Z,20.15
2022-11-01T12:30:50.993Z,19.65
2022-11-01T12:35:56.476Z,23.95
2022-11-01T12:41:00.969Z,14.65
2022-11-01T12:51:15.722Z,18.58
2022-11-01T12:56:19.725Z,21.60
2022-11-01T13:01:30.284Z,23.00
2022-11-01T13:06:47.729Z,27.20
2022-11-01T13:11:58.423Z,16.80
2022-11-01T13:17:09.598Z,18.60
2022-11-01T13:22:20.745Z,18.98
2022-11-01T13:27:29.125Z,24.58
2022-11-01T13:32:38.073Z,22.95
2022-11-01T13:37:48.020Z,23.10
2022-11-01T13:42:55.057Z,16.55
2022-11-01T13:48:06.881Z,18.50
2022-11-01T13:53:16.964Z,18.30
2022-11-01T13:58:22.142Z,21.55
2022-11-01T14:03:29.528Z,22.38
2022-11-01T14:08:38.052Z,20.95
2022-11-01T14:13:45.773Z,16.83
2022-11-01T14:19:19.217Z,22.75
2022-11-01T14:24:33.789Z,20.13
2022-11-01T14:29:38.942Z,17.40
2022-11-01T14:34:45.485Z,26.60
2022-11-01T14:40:07.633Z,26.02
2022-11-01T14:45:29.705Z,27.85
2022-11-01T14:50:40.473Z,29.67
2022-11-01T14:55:45.626Z,27.45
2022-11-01T15:00:50.856Z,26.40
2022-11-01T15:05:54.707Z,22.48
2022-11-01T15:11:03.337Z,18.20
2022-11-01T15:16:14.609Z,34.28
2022-11-01T15:21:24.319Z,25.83
2022-11-01T15:26:34.231Z,32.78
2022-11-01T15:31:50.214Z,32.60
2022-11-01T15:36:55.064Z,32.58
2022-11-01T15:42:01.704Z,42.00
2022-11-01T15:47:06.939Z,48.70
2022-11-01T15:52:19.409Z,33.73
2022-11-01T15:57:27.049Z,48.03
2022-11-01T16:02:35.383Z,51.40
2022-11-01T16:07:39.273Z,30.13
2022-11-01T16:12:46.599Z,34.53
2022-11-01T16:17:52.286Z,43.08
2022-11-01T16:22:58.958Z,38.17
2022-11-01T16:28:07.443Z,42.20
2022-11-01T16:33:22.015Z,43.15
2022-11-01T16:38:29.128Z,48.15
2022-11-01T16:43:35.478Z,35.30
2022-11-01T16:48:50.509Z,26.33
2022-11-01T16:53:54.544Z,46.15
2022-11-01T16:59:01.678Z,38.25
2022-11-01T17:04:05.933Z,49.40
2022-11-01T17:09:13.434Z,36.63
2022-11-01T17:14:19.044Z,56.72
2022-11-01T17:19:26.426Z,49.35
2022-11-01T17:24:33.398Z,47.10
2022-11-01T17:29:38.613Z,58.22
2022-11-01T17:34:42.392Z,57.33
2022-11-01T17:39:46.254Z,50.47
2022-11-01T17:44:51.715Z,45.22
2022-11-01T17:49:55.494Z,60.22
2022-11-01T17:54:59.301Z,36.22
2022-11-01T18:00:07.532Z,35.10
2022-11-01T18:05:16.318Z,32.67
2022-11-01T18:10:22.159Z,33.30
2022-11-01T18:15:31.897Z,43.75
2022-11-01T18:20:43.674Z,39.15
2022-11-01T18:25:49.167Z,44.25
2022-11-01T18:30:56.854Z,43.13
2022-11-01T18:36:04.697Z,51.08
2022-11-01T18:41:13.269Z,50.65
2022-11-01T18:46:27.654Z,43.33
2022-11-01T18:51:32.731Z,35.42
2022-11-01T18:56:37.958Z,37.13
2022-11-01T19:01:44.061Z,41.17
2022-11-01T19:06:47.954Z,44.70
2022-11-01T19:11:56.528Z,37.67
2022-11-01T19:17:01.690Z,48.58
2022-11-01T19:22:20.793Z,47.77
2022-11-01T19:27:24.822Z,43.13
2022-11-01T19:32:29.987Z,50.83
2022-11-01T19:37:36.624Z,47.97
2022-11-01T19:42:41.593Z,47.40
2022-11-01T19:47:49.610Z,50.83
2022-11-01T19:52:54.805Z,48.85
2022-11-01T19:57:58.642Z,47.47
2022-11-01T20:03:03.979Z,39.58
2022-11-01T20:08:15.331Z,43.95
2022-11-01T20:13:19.147Z,40.67
2022-11-01T20:18:24.385Z,51.17
2022-11-01T20:23:28.251Z,48.53
2022-11-01T20:28:32.276Z,46.20
2022-11-01T20:33:37.502Z,46.45
2022-11-01T20:38:41.613Z,39.17
2022-11-01T20:43:45.484Z,41.40
2022-11-01T20:48:50.659Z,37.67
2022-11-01T20:53:54.416Z,40.87
2022-11-01T20:58:58.409Z,34.88
2022-11-01T21:04:03.618Z,34.83
2022-11-01T21:09:09.477Z,47.83
2022-11-01T21:14:16.078Z,50.50
2022-11-01T21:19:23.688Z,38.20
2022-11-01T21:24:29.858Z,35.80
2022-11-01T21:29:33.892Z,33.40
2022-11-01T21:34:39.350Z,31.10
2022-11-01T21:39:43.119Z,38.28
2022-11-01T21:44:47.263Z,43.72
2022-11-01T21:49:52.783Z,34.83
2022-11-01T21:54:56.558Z,35.08
2022-11-01T22:00:00.325Z,36.42
2022-11-01T22:05:06.410Z,38.15
2022-11-01T22:15:14.287Z,35.28
2022-11-01T22:20:19.477Z,34.83
2022-11-01T22:25:23.231Z,32.90
2022-11-01T22:30:27.009Z,38.17
2022-11-01T22:35:32.168Z,31.52
2022-11-01T22:40:35.962Z,33.93
2022-11-01T22:45:41.637Z,28.27
2022-11-01T22:50:46.851Z,33.53
2022-11-01T22:55:52.010Z,35.33
2022-11-01T23:00:57.267Z,39.92
2022-11-01T23:06:07.691Z,37.10
2022-11-01T23:11:43.805Z,36.03
2022-11-01T23:16:47.593Z,38.30
2022-11-01T23:21:52.764Z,35.63
2022-11-01T23:26:56.516Z,32.35
2022-11-01T23:32:00.269Z,30.58
2022-11-01T23:37:06.634Z,32.95
2022-11-01T23:42:19.759Z,33.42
2022-11-01T23:47:26.437Z,37.42
2022-11-01T23:52:37.473Z,35.33
2022-11-01T23:57:41.293Z,33.60
